sensor_id;sensor_type;location;lat;lon;timestamp;P1;durP1;ratioP1;P2;durP2;ratioP2
75584;SDS011;64162;53.508;10.476;2023-04-06T00:00:03;11.48;;;4.78;;
75584;SDS011;64162;53.508;10.476;2023-04-06T00:02:34;9.13;;;4.60;;
75584;SDS011;64162;53.508;10.476;2023-04-06T00:05:02;7.85;;;4.70;;
75584;SDS011;64162;53.508;10.476;2023-04-06T00:07:28;8.60;;;4.60;;
75584;SDS011;64162;53.508;10.476;2023-04-06T00:09:55;8.63;;;4.60;;
75584;SDS011;64162;53.508;10.476;2023-04-06T00:12:22;8.75;;;4.32;;
75584;SDS011;64162;53.508;10.476;2023-04-06T00:14:49;8.25;;;4.32;;
75584;SDS011;64162;53.508;10.476;2023-04-06T00:17:15;8.82;;;4.25;;
75584;SDS011;64162;53.508;10.476;2023-04-06T00:19:42;8.10;;;4.75;;
75584;SDS011;64162;53.508;10.476;2023-04-06T00:22:08;9.98;;;4.80;;
75584;SDS011;64162;53.508;10.476;2023-04-06T00:24:35;9.43;;;4.78;;
75584;SDS011;64162;53.508;10.476;2023-04-06T00:27:01;11.68;;;5.00;;
75584;SDS011;64162;53.508;10.476;2023-04-06T00:29:28;10.07;;;4.28;;
75584;SDS011;64162;53.508;10.476;2023-04-06T00:31:55;11.90;;;4.28;;
75584;SDS011;64162;53.508;10.476;2023-04-06T00:34:21;11.68;;;4.78;;
75584;SDS011;64162;53.508;10.476;2023-04-06T00:36:48;8.18;;;4.35;;
75584;SDS011;64162;53.508;10.476;2023-04-06T00:39:14;6.57;;;3.50;;
75584;SDS011;64162;53.508;10.476;2023-04-06T00:41:44;9.43;;;4.30;;
75584;SDS011;64162;53.508;10.476;2023-04-06T00:44:12;7.60;;;3.95;;
75584;SDS011;64162;53.508;10.476;2023-04-06T00:46:39;9.38;;;4.10;;
75584;SDS011;64162;53.508;10.476;2023-04-06T00:49:05;10.48;;;4.53;;
75584;SDS011;64162;53.508;10.476;2023-04-06T00:51:32;9.32;;;4.40;;
75584;SDS011;64162;53.508;10.476;2023-04-06T00:53:59;9.82;;;4.55;;
75584;SDS011;64162;53.508;10.476;2023-04-06T00:56:28;7.93;;;4.03;;
75584;SDS011;64162;53.508;10.476;2023-04-06T00:58:55;7.60;;;4.00;;
75584;SDS011;64162;53.508;10.476;2023-04-06T01:03:51;7.72;;;3.58;;
75584;SDS011;64162;53.508;10.476;2023-04-06T01:06:19;7.25;;;3.70;;
75584;SDS011;64162;53.508;10.476;2023-04-06T01:08:55;6.63;;;3.72;;
75584;SDS011;64162;53.508;10.476;2023-04-06T01:11:23;9.15;;;4.05;;
75584;SDS011;64162;53.508;10.476;2023-04-06T01:13:51;9.50;;;3.85;;
75584;SDS011;64162;53.508;10.476;2023-04-06T01:16:39;6.38;;;3.72;;
75584;SDS011;64162;53.508;10.476;2023-04-06T01:19:09;6.65;;;3.65;;
75584;SDS011;64162;53.508;10.476;2023-04-06T01:21:38;6.97;;;3.85;;
75584;SDS011;64162;53.508;10.476;2023-04-06T01:24:19;8.23;;;3.78;;
75584;SDS011;64162;53.508;10.476;2023-04-06T01:26:58;7.45;;;4.13;;
75584;SDS011;64162;53.508;10.476;2023-04-06T01:29:30;7.80;;;3.83;;
75584;SDS011;64162;53.508;10.476;2023-04-06T01:31:58;8.88;;;4.65;;
75584;SDS011;64162;53.508;10.476;2023-04-06T01:34:25;9.20;;;3.45;;
75584;SDS011;64162;53.508;10.476;2023-04-06T01:36:54;8.50;;;4.25;;
75584;SDS011;64162;53.508;10.476;2023-04-06T01:39:25;7.63;;;4.35;;
75584;SDS011;64162;53.508;10.476;2023-04-06T01:44:20;7.65;;;4.20;;
75584;SDS011;64162;53.508;10.476;2023-04-06T01:46:52;10.93;;;4.25;;
75584;SDS011;64162;53.508;10.476;2023-04-06T01:49:19;10.75;;;4.15;;
75584;SDS011;64162;53.508;10.476;2023-04-06T01:51:50;6.70;;;3.60;;
75584;SDS011;64162;53.508;10.476;2023-04-06T01:54:18;7.63;;;3.83;;
75584;SDS011;64162;53.508;10.476;2023-04-06T01:57:04;7.10;;;3.70;;
75584;SDS011;64162;53.508;10.476;2023-04-06T01:59:38;8.32;;;4.15;;
75584;SDS011;64162;53.508;10.476;2023-04-06T02:02:12;5.97;;;3.65;;
75584;SDS011;64162;53.508;10.476;2023-04-06T02:04:43;7.47;;;4.10;;
75584;SDS011;64162;53.508;10.476;2023-04-06T02:07:12;8.15;;;3.80;;
75584;SDS011;64162;53.508;10.476;2023-04-06T02:09:38;7.55;;;4.25;;
75584;SDS011;64162;53.508;10.476;2023-04-06T02:12:11;10.73;;;4.50;;
75584;SDS011;64162;53.508;10.476;2023-04-06T02:14:37;7.20;;;3.92;;
75584;SDS011;64162;53.508;10.476;2023-04-06T02:17:04;7.45;;;4.05;;
75584;SDS011;64162;53.508;10.476;2023-04-06T02:19:31;9.80;;;4.18;;
75584;SDS011;64162;53.508;10.476;2023-04-06T02:21:57;8.15;;;3.90;;
75584;SDS011;64162;53.508;10.476;2023-04-06T02:24:24;7.78;;;3.75;;
75584;SDS011;64162;53.508;10.476;2023-04-06T02:26:51;7.72;;;3.92;;
75584;SDS011;64162;53.508;10.476;2023-04-06T02:29:18;8.50;;;3.97;;
75584;SDS011;64162;53.508;10.476;2023-04-06T02:31:44;8.73;;;4.32;;
75584;SDS011;64162;53.508;10.476;2023-04-06T02:34:11;8.43;;;3.55;;
75584;SDS011;64162;53.508;10.476;2023-04-06T02:36:46;10.50;;;4.22;;
75584;SDS011;64162;53.508;10.476;2023-04-06T02:39:13;8.25;;;4.07;;
75584;SDS011;64162;53.508;10.476;2023-04-06T02:41:40;6.90;;;4.00;;
75584;SDS011;64162;53.508;10.476;2023-04-06T02:44:07;9.85;;;4.38;;
75584;SDS011;64162;53.508;10.476;2023-04-06T02:46:41;7.82;;;4.05;;
75584;SDS011;64162;53.508;10.476;2023-04-06T02:49:08;6.85;;;4.30;;
75584;SDS011;64162;53.508;10.476;2023-04-06T02:54:27;7.65;;;3.50;;
75584;SDS011;64162;53.508;10.476;2023-04-06T02:56:54;6.78;;;3.83;;
75584;SDS011;64162;53.508;10.476;2023-04-06T02:59:24;7.25;;;3.78;;
75584;SDS011;64162;53.508;10.476;2023-04-06T03:02:01;8.70;;;4.30;;
75584;SDS011;64162;53.508;10.476;2023-04-06T03:04:28;7.55;;;4.07;;
75584;SDS011;64162;53.508;10.476;2023-04-06T03:06:57;6.57;;;3.53;;
75584;SDS011;64162;53.508;10.476;2023-04-06T03:09:33;8.48;;;4.13;;
75584;SDS011;64162;53.508;10.476;2023-04-06T03:12:00;10.48;;;3.95;;
75584;SDS011;64162;53.508;10.476;2023-04-06T03:14:30;8.90;;;4.13;;
75584;SDS011;64162;53.508;10.476;2023-04-06T03:16:57;8.48;;;4.05;;
75584;SDS011;64162;53.508;10.476;2023-04-06T03:19:24;8.57;;;4.28;;
75584;SDS011;64162;53.508;10.476;2023-04-06T03:21:52;8.05;;;3.92;;
75584;SDS011;64162;53.508;10.476;2023-04-06T03:24:21;9.82;;;4.00;;
75584;SDS011;64162;53.508;10.476;2023-04-06T03:26:48;8.63;;;4.00;;
75584;SDS011;64162;53.508;10.476;2023-04-06T03:29:15;9.70;;;4.45;;
75584;SDS011;64162;53.508;10.476;2023-04-06T03:31:41;6.45;;;3.45;;
75584;SDS011;64162;53.508;10.476;2023-04-06T03:34:30;8.45;;;3.35;;
75584;SDS011;64162;53.508;10.476;2023-04-06T03:36:57;10.35;;;4.03;;
75584;SDS011;64162;53.508;10.476;2023-04-06T03:39:32;7.85;;;4.25;;
75584;SDS011;64162;53.508;10.476;2023-04-06T03:41:59;7.68;;;3.95;;
75584;SDS011;64162;53.508;10.476;2023-04-06T03:44:32;7.82;;;4.25;;
75584;SDS011;64162;53.508;10.476;2023-04-06T03:46:59;9.73;;;4.18;;
75584;SDS011;64162;53.508;10.476;2023-04-06T03:49:26;7.28;;;3.97;;
75584;SDS011;64162;53.508;10.476;2023-04-06T03:51:55;6.28;;;3.60;;
75584;SDS011;64162;53.508;10.476;2023-04-06T03:54:22;8.98;;;3.97;;
75584;SDS011;64162;53.508;10.476;2023-04-06T03:56:49;8.00;;;4.13;;
75584;SDS011;64162;53.508;10.476;2023-04-06T03:59:15;10.57;;;4.30;;
75584;SDS011;64162;53.508;10.476;2023-04-06T04:01:42;9.77;;;4.40;;
75584;SDS011;64162;53.508;10.476;2023-04-06T04:04:09;9.65;;;4.68;;
75584;SDS011;64162;53.508;10.476;2023-04-06T04:06:36;9.95;;;4.85;;
75584;SDS011;64162;53.508;10.476;2023-04-06T04:09:04;7.85;;;4.10;;
75584;SDS011;64162;53.508;10.476;2023-04-06T04:11:31;10.82;;;5.05;;
75584;SDS011;64162;53.508;10.476;2023-04-06T04:13:58;9.23;;;4.43;;
75584;SDS011;64162;53.508;10.476;2023-04-06T04:16:24;12.38;;;4.78;;
75584;SDS011;64162;53.508;10.476;2023-04-06T04:18:51;9.60;;;5.07;;
75584;SDS011;64162;53.508;10.476;2023-04-06T04:21:18;9.85;;;5.07;;
75584;SDS011;64162;53.508;10.476;2023-04-06T04:23:44;11.90;;;5.03;;
75584;SDS011;64162;53.508;10.476;2023-04-06T04:26:11;11.65;;;5.05;;
75584;SDS011;64162;53.508;10.476;2023-04-06T04:28:38;10.32;;;4.65;;
75584;SDS011;64162;53.508;10.476;2023-04-06T04:31:04;15.38;;;5.18;;
75584;SDS011;64162;53.508;10.476;2023-04-06T04:33:33;9.73;;;5.10;;
75584;SDS011;64162;53.508;10.476;2023-04-06T04:36:04;10.30;;;4.72;;
75584;SDS011;64162;53.508;10.476;2023-04-06T04:38:36;12.35;;;5.18;;
75584;SDS011;64162;53.508;10.476;2023-04-06T04:41:03;12.85;;;4.90;;
75584;SDS011;64162;53.508;10.476;2023-04-06T04:43:30;9.77;;;4.97;;
75584;SDS011;64162;53.508;10.476;2023-04-06T04:45:59;12.85;;;5.30;;
75584;SDS011;64162;53.508;10.476;2023-04-06T04:48:36;10.15;;;4.97;;
75584;SDS011;64162;53.508;10.476;2023-04-06T04:51:05;7.13;;;4.28;;
75584;SDS011;64162;53.508;10.476;2023-04-06T04:53:58;11.18;;;4.70;;
75584;SDS011;64162;53.508;10.476;2023-04-06T04:56:28;8.07;;;4.45;;
75584;SDS011;64162;53.508;10.476;2023-04-06T04:59:04;10.55;;;4.57;;
75584;SDS011;64162;53.508;10.476;2023-04-06T05:01:34;10.45;;;4.75;;
75584;SDS011;64162;53.508;10.476;2023-04-06T05:04:06;10.07;;;5.03;;
75584;SDS011;64162;53.508;10.476;2023-04-06T05:08:59;9.00;;;4.40;;
75584;SDS011;64162;53.508;10.476;2023-04-06T05:11:28;13.63;;;5.20;;
75584;SDS011;64162;53.508;10.476;2023-04-06T05:13:58;11.40;;;4.80;;
75584;SDS011;64162;53.508;10.476;2023-04-06T05:16:26;9.77;;;4.72;;
75584;SDS011;64162;53.508;10.476;2023-04-06T05:18:53;10.77;;;5.38;;
75584;SDS011;64162;53.508;10.476;2023-04-06T05:21:20;10.02;;;5.13;;
75584;SDS011;64162;53.508;10.476;2023-04-06T05:26:20;13.70;;;5.30;;
75584;SDS011;64162;53.508;10.476;2023-04-06T05:28:50;10.10;;;5.18;;
75584;SDS011;64162;53.508;10.476;2023-04-06T05:31:17;12.13;;;5.82;;
75584;SDS011;64162;53.508;10.476;2023-04-06T05:33:47;14.45;;;6.07;;
75584;SDS011;64162;53.508;10.476;2023-04-06T05:36:16;15.43;;;6.50;;
75584;SDS011;64162;53.508;10.476;2023-04-06T05:38:45;15.38;;;5.75;;
75584;SDS011;64162;53.508;10.476;2023-04-06T05:41:28;12.48;;;6.18;;
75584;SDS011;64162;53.508;10.476;2023-04-06T05:46:23;12.73;;;6.40;;
75584;SDS011;64162;53.508;10.476;2023-04-06T05:48:52;15.65;;;6.93;;
75584;SDS011;64162;53.508;10.476;2023-04-06T05:51:23;13.13;;;6.43;;
75584;SDS011;64162;53.508;10.476;2023-04-06T05:53:49;12.77;;;6.57;;
75584;SDS011;64162;53.508;10.476;2023-04-06T05:56:16;11.77;;;6.35;;
75584;SDS011;64162;53.508;10.476;2023-04-06T06:01:12;12.23;;;5.63;;
75584;SDS011;64162;53.508;10.476;2023-04-06T06:03:43;11.57;;;5.60;;
75584;SDS011;64162;53.508;10.476;2023-04-06T06:06:09;13.52;;;5.82;;
75584;SDS011;64162;53.508;10.476;2023-04-06T06:08:57;13.05;;;6.00;;
75584;SDS011;64162;53.508;10.476;2023-04-06T06:11:30;12.77;;;5.28;;
75584;SDS011;64162;53.508;10.476;2023-04-06T06:13:57;11.02;;;5.38;;
75584;SDS011;64162;53.508;10.476;2023-04-06T06:16:24;11.80;;;6.25;;
75584;SDS011;64162;53.508;10.476;2023-04-06T06:18:50;12.23;;;5.53;;
75584;SDS011;64162;53.508;10.476;2023-04-06T06:23:44;8.02;;;4.47;;
75584;SDS011;64162;53.508;10.476;2023-04-06T06:26:14;10.40;;;4.57;;
75584;SDS011;64162;53.508;10.476;2023-04-06T06:31:10;7.03;;;4.25;;
75584;SDS011;64162;53.508;10.476;2023-04-06T06:33:36;10.52;;;4.55;;
75584;SDS011;64162;53.508;10.476;2023-04-06T06:36:03;7.35;;;4.40;;
75584;SDS011;64162;53.508;10.476;2023-04-06T06:38:30;9.50;;;4.30;;
75584;SDS011;64162;53.508;10.476;2023-04-06T06:40:56;7.72;;;4.75;;
75584;SDS011;64162;53.508;10.476;2023-04-06T06:43:26;8.25;;;4.90;;
75584;SDS011;64162;53.508;10.476;2023-04-06T06:46:01;10.75;;;5.07;;
75584;SDS011;64162;53.508;10.476;2023-04-06T06:48:28;8.15;;;4.43;;
75584;SDS011;64162;53.508;10.476;2023-04-06T06:50:54;12.15;;;5.30;;
75584;SDS011;64162;53.508;10.476;2023-04-06T06:55:47;8.57;;;4.25;;
75584;SDS011;64162;53.508;10.476;2023-04-06T06:58:18;10.10;;;4.82;;
75584;SDS011;64162;53.508;10.476;2023-04-06T07:00:45;10.68;;;4.68;;
75584;SDS011;64162;53.508;10.476;2023-04-06T07:03:12;9.25;;;4.63;;
75584;SDS011;64162;53.508;10.476;2023-04-06T07:05:45;9.15;;;4.55;;
75584;SDS011;64162;53.508;10.476;2023-04-06T07:08:15;7.30;;;4.25;;
75584;SDS011;64162;53.508;10.476;2023-04-06T07:10:42;8.07;;;4.97;;
75584;SDS011;64162;53.508;10.476;2023-04-06T07:13:09;14.50;;;5.00;;
75584;SDS011;64162;53.508;10.476;2023-04-06T07:15:37;8.00;;;4.57;;
75584;SDS011;64162;53.508;10.476;2023-04-06T07:18:04;7.70;;;4.05;;
75584;SDS011;64162;53.508;10.476;2023-04-06T07:20:31;7.45;;;4.25;;
75584;SDS011;64162;53.508;10.476;2023-04-06T07:22:57;7.93;;;4.50;;
75584;SDS011;64162;53.508;10.476;2023-04-06T07:25:24;6.97;;;3.90;;
75584;SDS011;64162;53.508;10.476;2023-04-06T07:30:18;9.27;;;4.00;;
75584;SDS011;64162;53.508;10.476;2023-04-06T07:32:45;7.28;;;4.20;;
75584;SDS011;64162;53.508;10.476;2023-04-06T07:35:12;7.90;;;3.92;;
75584;SDS011;64162;53.508;10.476;2023-04-06T07:37:40;8.80;;;4.28;;
75584;SDS011;64162;53.508;10.476;2023-04-06T07:42:34;6.22;;;3.05;;
75584;SDS011;64162;53.508;10.476;2023-04-06T07:45:03;5.82;;;3.28;;
75584;SDS011;64162;53.508;10.476;2023-04-06T07:47:31;8.20;;;3.92;;
75584;SDS011;64162;53.508;10.476;2023-04-06T07:49:58;6.82;;;3.60;;
75584;SDS011;64162;53.508;10.476;2023-04-06T07:52:24;6.85;;;3.47;;
75584;SDS011;64162;53.508;10.476;2023-04-06T07:54:51;4.72;;;3.00;;
75584;SDS011;64162;53.508;10.476;2023-04-06T07:57:18;3.97;;;2.67;;
75584;SDS011;64162;53.508;10.476;2023-04-06T07:59:45;6.85;;;3.10;;
75584;SDS011;64162;53.508;10.476;2023-04-06T08:02:12;8.18;;;3.90;;
75584;SDS011;64162;53.508;10.476;2023-04-06T08:04:38;5.55;;;3.28;;
75584;SDS011;64162;53.508;10.476;2023-04-06T08:07:05;6.38;;;3.28;;
75584;SDS011;64162;53.508;10.476;2023-04-06T08:09:32;6.90;;;3.08;;
75584;SDS011;64162;53.508;10.476;2023-04-06T08:11:59;8.05;;;3.50;;
75584;SDS011;64162;53.508;10.476;2023-04-06T08:14:26;6.10;;;3.10;;
75584;SDS011;64162;53.508;10.476;2023-04-06T08:16:52;5.45;;;2.92;;
75584;SDS011;64162;53.508;10.476;2023-04-06T08:19:19;5.40;;;2.80;;
75584;SDS011;64162;53.508;10.476;2023-04-06T08:24:13;5.72;;;3.00;;
75584;SDS011;64162;53.508;10.476;2023-04-06T08:26:41;6.88;;;3.22;;
75584;SDS011;64162;53.508;10.476;2023-04-06T08:31:34;4.82;;;3.13;;
75584;SDS011;64162;53.508;10.476;2023-04-06T08:34:03;6.03;;;3.50;;
75584;SDS011;64162;53.508;10.476;2023-04-06T08:36:30;6.95;;;3.70;;
75584;SDS011;64162;53.508;10.476;2023-04-06T08:41:23;5.75;;;3.40;;
75584;SDS011;64162;53.508;10.476;2023-04-06T08:43:52;7.18;;;3.17;;
75584;SDS011;64162;53.508;10.476;2023-04-06T08:46:23;5.13;;;2.80;;
75584;SDS011;64162;53.508;10.476;2023-04-06T08:48:59;4.10;;;2.47;;
75584;SDS011;64162;53.508;10.476;2023-04-06T08:51:26;8.32;;;3.35;;
75584;SDS011;64162;53.508;10.476;2023-04-06T08:53:54;5.88;;;2.67;;
75584;SDS011;64162;53.508;10.476;2023-04-06T08:56:22;5.13;;;3.03;;
75584;SDS011;64162;53.508;10.476;2023-04-06T08:58:49;6.13;;;3.30;;
75584;SDS011;64162;53.508;10.476;2023-04-06T09:01:25;4.50;;;2.60;;
75584;SDS011;64162;53.508;10.476;2023-04-06T09:03:56;4.47;;;2.67;;
75584;SDS011;64162;53.508;10.476;2023-04-06T09:06:24;4.20;;;2.58;;
75584;SDS011;64162;53.508;10.476;2023-04-06T09:08:53;5.38;;;2.55;;
75584;SDS011;64162;53.508;10.476;2023-04-06T09:11:20;5.13;;;2.78;;
75584;SDS011;64162;53.508;10.476;2023-04-06T09:13:48;6.00;;;3.10;;
75584;SDS011;64162;53.508;10.476;2023-04-06T09:16:17;5.15;;;2.70;;
75584;SDS011;64162;53.508;10.476;2023-04-06T09:18:44;4.53;;;2.58;;
75584;SDS011;64162;53.508;10.476;2023-04-06T09:21:12;6.32;;;2.75;;
75584;SDS011;64162;53.508;10.476;2023-04-06T09:23:39;4.03;;;2.65;;
75584;SDS011;64162;53.508;10.476;2023-04-06T09:26:18;5.35;;;2.92;;
75584;SDS011;64162;53.508;10.476;2023-04-06T09:31:13;6.00;;;3.15;;
75584;SDS011;64162;53.508;10.476;2023-04-06T09:33:43;4.22;;;2.75;;
75584;SDS011;64162;53.508;10.476;2023-04-06T09:36:11;4.32;;;2.80;;
75584;SDS011;64162;53.508;10.476;2023-04-06T09:38:50;6.53;;;2.80;;
75584;SDS011;64162;53.508;10.476;2023-04-06T09:41:48;6.07;;;3.00;;
75584;SDS011;64162;53.508;10.476;2023-04-06T09:44:08;4.50;;;2.75;;
75584;SDS011;64162;53.508;10.476;2023-04-06T09:46:37;5.85;;;3.10;;
75584;SDS011;64162;53.508;10.476;2023-04-06T09:49:16;3.60;;;2.63;;
75584;SDS011;64162;53.508;10.476;2023-04-06T09:51:48;4.38;;;2.95;;
75584;SDS011;64162;53.508;10.476;2023-04-06T09:54:22;5.88;;;2.92;;
75584;SDS011;64162;53.508;10.476;2023-04-06T09:56:51;6.38;;;3.33;;
75584;SDS011;64162;53.508;10.476;2023-04-06T09:59:21;5.30;;;3.10;;
75584;SDS011;64162;53.508;10.476;2023-04-06T10:02:13;6.30;;;3.17;;
75584;SDS011;64162;53.508;10.476;2023-04-06T10:04:53;5.93;;;3.30;;
75584;SDS011;64162;53.508;10.476;2023-04-06T10:07:39;5.93;;;3.20;;
75584;SDS011;64162;53.508;10.476;2023-04-06T10:10:11;5.70;;;3.53;;
75584;SDS011;64162;53.508;10.476;2023-04-06T10:12:40;6.28;;;3.47;;
75584;SDS011;64162;53.508;10.476;2023-04-06T10:15:08;5.40;;;3.28;;
75584;SDS011;64162;53.508;10.476;2023-04-06T10:17:35;5.68;;;3.35;;
75584;SDS011;64162;53.508;10.476;2023-04-06T10:20:03;5.55;;;3.45;;
75584;SDS011;64162;53.508;10.476;2023-04-06T10:22:44;6.40;;;3.50;;
75584;SDS011;64162;53.508;10.476;2023-04-06T10:25:26;5.30;;;4.00;;
75584;SDS011;64162;53.508;10.476;2023-04-06T10:28:30;6.13;;;3.92;;
75584;SDS011;64162;53.508;10.476;2023-04-06T10:30:46;5.18;;;3.63;;
75584;SDS011;64162;53.508;10.476;2023-04-06T10:33:14;5.70;;;3.90;;
75584;SDS011;64162;53.508;10.476;2023-04-06T10:35:43;5.53;;;3.80;;
75584;SDS011;64162;53.508;10.476;2023-04-06T10:38:10;5.47;;;3.67;;
75584;SDS011;64162;53.508;10.476;2023-04-06T10:40:39;5.90;;;4.32;;
75584;SDS011;64162;53.508;10.476;2023-04-06T10:43:13;7.03;;;4.10;;
75584;SDS011;64162;53.508;10.476;2023-04-06T10:45:45;6.65;;;4.07;;
75584;SDS011;64162;53.508;10.476;2023-04-06T10:48:21;5.80;;;3.80;;
75584;SDS011;64162;53.508;10.476;2023-04-06T10:50:49;5.40;;;3.92;;
75584;SDS011;64162;53.508;10.476;2023-04-06T10:53:21;6.13;;;4.28;;
75584;SDS011;64162;53.508;10.476;2023-04-06T10:55:52;8.07;;;4.32;;
75584;SDS011;64162;53.508;10.476;2023-04-06T10:58:24;5.53;;;3.83;;
75584;SDS011;64162;53.508;10.476;2023-04-06T11:00:51;7.20;;;4.10;;
75584;SDS011;64162;53.508;10.476;2023-04-06T11:03:17;4.90;;;3.85;;
75584;SDS011;64162;53.508;10.476;2023-04-06T11:05:45;7.88;;;4.05;;
75584;SDS011;64162;53.508;10.476;2023-04-06T11:08:25;5.45;;;3.90;;
75584;SDS011;64162;53.508;10.476;2023-04-06T11:11:12;7.00;;;4.30;;
75584;SDS011;64162;53.508;10.476;2023-04-06T11:13:43;6.97;;;4.15;;
75584;SDS011;64162;53.508;10.476;2023-04-06T11:16:18;5.90;;;4.38;;
75584;SDS011;64162;53.508;10.476;2023-04-06T11:18:47;5.30;;;4.38;;
75584;SDS011;64162;53.508;10.476;2023-04-06T11:21:18;5.70;;;4.32;;
75584;SDS011;64162;53.508;10.476;2023-04-06T11:23:46;7.88;;;4.55;;
75584;SDS011;64162;53.508;10.476;2023-04-06T11:26:13;6.25;;;4.50;;
75584;SDS011;64162;53.508;10.476;2023-04-06T11:28:43;5.60;;;4.68;;
75584;SDS011;64162;53.508;10.476;2023-04-06T11:31:10;6.63;;;4.68;;
75584;SDS011;64162;53.508;10.476;2023-04-06T11:33:38;5.55;;;4.60;;
75584;SDS011;64162;53.508;10.476;2023-04-06T11:36:05;6.88;;;4.90;;
75584;SDS011;64162;53.508;10.476;2023-04-06T11:38:33;6.00;;;5.13;;
75584;SDS011;64162;53.508;10.476;2023-04-06T11:41:00;7.05;;;5.45;;
75584;SDS011;64162;53.508;10.476;2023-04-06T11:43:28;7.43;;;5.65;;
75584;SDS011;64162;53.508;10.476;2023-04-06T11:46:04;6.72;;;5.05;;
75584;SDS011;64162;53.508;10.476;2023-04-06T11:48:32;5.90;;;5.20;;
75584;SDS011;64162;53.508;10.476;2023-04-06T11:51:10;7.53;;;5.97;;
75584;SDS011;64162;53.508;10.476;2023-04-06T11:53:44;7.03;;;5.97;;
75584;SDS011;64162;53.508;10.476;2023-04-06T11:56:22;7.80;;;5.93;;
75584;SDS011;64162;53.508;10.476;2023-04-06T11:58:57;6.78;;;5.18;;
75584;SDS011;64162;53.508;10.476;2023-04-06T12:01:26;7.53;;;5.28;;
75584;SDS011;64162;53.508;10.476;2023-04-06T12:03:52;8.55;;;5.90;;
75584;SDS011;64162;53.508;10.476;2023-04-06T12:06:19;9.82;;;6.82;;
75584;SDS011;64162;53.508;10.476;2023-04-06T12:08:46;9.05;;;6.90;;
75584;SDS011;64162;53.508;10.476;2023-04-06T12:11:13;7.07;;;6.15;;
75584;SDS011;64162;53.508;10.476;2023-04-06T12:13:39;7.43;;;5.97;;
75584;SDS011;64162;53.508;10.476;2023-04-06T12:16:06;8.40;;;6.22;;
75584;SDS011;64162;53.508;10.476;2023-04-06T12:18:32;7.70;;;6.20;;
75584;SDS011;64162;53.508;10.476;2023-04-06T12:20:59;7.80;;;6.10;;
75584;SDS011;64162;53.508;10.476;2023-04-06T12:23:26;7.65;;;6.05;;
75584;SDS011;64162;53.508;10.476;2023-04-06T12:25:52;6.97;;;5.72;;
75584;SDS011;64162;53.508;10.476;2023-04-06T12:28:20;8.57;;;5.95;;
75584;SDS011;64162;53.508;10.476;2023-04-06T12:30:49;6.43;;;5.80;;
75584;SDS011;64162;53.508;10.476;2023-04-06T12:33:17;8.30;;;6.20;;
75584;SDS011;64162;53.508;10.476;2023-04-06T12:35:43;8.40;;;6.05;;
75584;SDS011;64162;53.508;10.476;2023-04-06T12:38:10;7.40;;;6.38;;
75584;SDS011;64162;53.508;10.476;2023-04-06T12:40:37;9.00;;;6.88;;
75584;SDS011;64162;53.508;10.476;2023-04-06T12:43:05;7.93;;;7.07;;
75584;SDS011;64162;53.508;10.476;2023-04-06T12:45:32;8.18;;;6.78;;
75584;SDS011;64162;53.508;10.476;2023-04-06T12:47:58;9.43;;;7.20;;
75584;SDS011;64162;53.508;10.476;2023-04-06T12:50:25;8.30;;;7.15;;
75584;SDS011;64162;53.508;10.476;2023-04-06T12:52:52;10.55;;;7.65;;
75584;SDS011;64162;53.508;10.476;2023-04-06T12:55:19;8.32;;;6.88;;
75584;SDS011;64162;53.508;10.476;2023-04-06T12:57:46;10.90;;;6.50;;
75584;SDS011;64162;53.508;10.476;2023-04-06T13:00:13;8.18;;;5.88;;
75584;SDS011;64162;53.508;10.476;2023-04-06T13:02:41;7.72;;;6.65;;
75584;SDS011;64162;53.508;10.476;2023-04-06T13:05:13;9.45;;;6.57;;
75584;SDS011;64162;53.508;10.476;2023-04-06T13:10:11;8.25;;;6.57;;
75584;SDS011;64162;53.508;10.476;2023-04-06T13:12:38;9.25;;;6.75;;
75584;SDS011;64162;53.508;10.476;2023-04-06T13:15:05;8.38;;;6.75;;
75584;SDS011;64162;53.508;10.476;2023-04-06T13:17:32;7.70;;;6.90;;
75584;SDS011;64162;53.508;10.476;2023-04-06T13:19:58;8.45;;;7.00;;
75584;SDS011;64162;53.508;10.476;2023-04-06T13:22:25;7.50;;;6.03;;
75584;SDS011;64162;53.508;10.476;2023-04-06T13:24:51;9.02;;;7.07;;
75584;SDS011;64162;53.508;10.476;2023-04-06T13:27:18;8.35;;;6.53;;
75584;SDS011;64162;53.508;10.476;2023-04-06T13:29:45;9.43;;;7.00;;
75584;SDS011;64162;53.508;10.476;2023-04-06T13:32:12;7.47;;;6.30;;
75584;SDS011;64162;53.508;10.476;2023-04-06T13:34:38;7.63;;;6.05;;
75584;SDS011;64162;53.508;10.476;2023-04-06T13:37:06;7.43;;;5.93;;
75584;SDS011;64162;53.508;10.476;2023-04-06T13:39:33;8.95;;;6.88;;
75584;SDS011;64162;53.508;10.476;2023-04-06T13:41:59;6.97;;;6.15;;
75584;SDS011;64162;53.508;10.476;2023-04-06T13:44:27;8.68;;;6.63;;
75584;SDS011;64162;53.508;10.476;2023-04-06T13:46:54;7.70;;;6.65;;
75584;SDS011;64162;53.508;10.476;2023-04-06T13:49:20;7.72;;;5.82;;
75584;SDS011;64162;53.508;10.476;2023-04-06T13:51:47;8.30;;;5.90;;
75584;SDS011;64162;53.508;10.476;2023-04-06T13:54:14;7.45;;;6.20;;
75584;SDS011;64162;53.508;10.476;2023-04-06T13:56:41;8.85;;;6.82;;
75584;SDS011;64162;53.508;10.476;2023-04-06T13:59:07;7.72;;;6.13;;
75584;SDS011;64162;53.508;10.476;2023-04-06T14:01:34;7.35;;;6.18;;
75584;SDS011;64162;53.508;10.476;2023-04-06T14:04:01;8.90;;;6.05;;
75584;SDS011;64162;53.508;10.476;2023-04-06T14:06:27;8.57;;;6.25;;
75584;SDS011;64162;53.508;10.476;2023-04-06T14:08:56;8.25;;;5.78;;
75584;SDS011;64162;53.508;10.476;2023-04-06T14:11:23;7.80;;;5.72;;
75584;SDS011;64162;53.508;10.476;2023-04-06T14:13:49;10.40;;;5.78;;
75584;SDS011;64162;53.508;10.476;2023-04-06T14:16:16;9.13;;;6.03;;
75584;SDS011;64162;53.508;10.476;2023-04-06T14:18:45;7.93;;;5.75;;
75584;SDS011;64162;53.508;10.476;2023-04-06T14:21:12;7.97;;;6.05;;
75584;SDS011;64162;53.508;10.476;2023-04-06T14:23:38;9.27;;;6.38;;
75584;SDS011;64162;53.508;10.476;2023-04-06T14:26:06;8.38;;;5.88;;
75584;SDS011;64162;53.508;10.476;2023-04-06T14:28:34;8.02;;;6.00;;
75584;SDS011;64162;53.508;10.476;2023-04-06T14:31:02;8.75;;;5.93;;
75584;SDS011;64162;53.508;10.476;2023-04-06T14:33:36;8.05;;;5.97;;
75584;SDS011;64162;53.508;10.476;2023-04-06T14:36:03;7.28;;;5.45;;
75584;SDS011;64162;53.508;10.476;2023-04-06T14:38:31;6.82;;;5.82;;
75584;SDS011;64162;53.508;10.476;2023-04-06T14:40:58;8.95;;;5.45;;
75584;SDS011;64162;53.508;10.476;2023-04-06T14:43:25;7.13;;;5.70;;
75584;SDS011;64162;53.508;10.476;2023-04-06T14:45:52;8.02;;;5.25;;
75584;SDS011;64162;53.508;10.476;2023-04-06T15:48:21;7.72;;;5.00;;
75584;SDS011;64162;53.508;10.476;2023-04-06T15:50:48;8.55;;;4.93;;
75584;SDS011;64162;53.508;10.476;2023-04-06T15:53:14;9.10;;;5.10;;
75584;SDS011;64162;53.508;10.476;2023-04-06T15:55:41;6.75;;;4.95;;
75584;SDS011;64162;53.508;10.476;2023-04-06T15:58:07;6.60;;;4.97;;
75584;SDS011;64162;53.508;10.476;2023-04-06T16:00:34;8.23;;;5.43;;
75584;SDS011;64162;53.508;10.476;2023-04-06T16:03:01;7.10;;;5.07;;
75584;SDS011;64162;53.508;10.476;2023-04-06T16:05:28;6.95;;;4.57;;
75584;SDS011;64162;53.508;10.476;2023-04-06T16:07:57;8.40;;;5.35;;
75584;SDS011;64162;53.508;10.476;2023-04-06T16:10:23;9.18;;;5.50;;
75584;SDS011;64162;53.508;10.476;2023-04-06T16:12:50;8.10;;;4.90;;
75584;SDS011;64162;53.508;10.476;2023-04-06T16:15:16;9.20;;;4.70;;
75584;SDS011;64162;53.508;10.476;2023-04-06T16:17:43;7.57;;;5.00;;
75584;SDS011;64162;53.508;10.476;2023-04-06T16:20:09;8.27;;;5.38;;
75584;SDS011;64162;53.508;10.476;2023-04-06T16:22:37;6.70;;;4.90;;
75584;SDS011;64162;53.508;10.476;2023-04-06T16:25:03;8.38;;;5.05;;